sensor_id;sensor_type;location;lat;lon;timestamp;pressure;altitude;pressure_sealevel;temperature;humidity
66273;BME280;58450;52.150;4.466;2023-07-20T00:00:34;101515.41;;;16.32;100.00
66273;BME280;58450;52.150;4.466;2023-07-20T00:03:12;101512.88;;;16.30;100.00
66273;BME280;58450;52.150;4.466;2023-07-20T00:05:44;101511.22;;;16.29;100.00
66273;BME280;58450;52.150;4.466;2023-07-20T00:08:12;101512.47;;;16.27;100.00
66273;BME280;58450;52.150;4.466;2023-07-20T00:10:40;101513.72;;;16.24;100.00
66273;BME280;58450;52.150;4.466;2023-07-20T00:13:08;101503.28;;;16.21;100.00
66273;BME280;58450;52.150;4.466;2023-07-20T00:15:36;101506.41;;;16.18;100.00
66273;BME280;58450;52.150;4.466;2023-07-20T00:18:04;101513.28;;;16.14;100.00
66273;BME280;58450;52.150;4.466;2023-07-20T00:20:32;101509.75;;;16.13;100.00
66273;BME280;58450;52.150;4.466;2023-07-20T00:23:01;101515.38;;;16.12;100.00
66273;BME280;58450;52.150;4.466;2023-07-20T00:25:29;101519.97;;;16.11;100.00
66273;BME280;58450;52.150;4.466;2023-07-20T00:27:56;101515.59;;;16.10;100.00
66273;BME280;58450;52.150;4.466;2023-07-20T00:30:24;101527.28;;;16.10;100.00
66273;BME280;58450;52.150;4.466;2023-07-20T00:32:52;101515.59;;;16.10;100.00
66273;BME280;58450;52.150;4.466;2023-07-20T00:35:19;101514.75;;;16.09;100.00
66273;BME280;58450;52.150;4.466;2023-07-20T00:37:47;101514.75;;;16.09;100.00
66273;BME280;58450;52.150;4.466;2023-07-20T00:40:16;101511.41;;;16.07;100.00
66273;BME280;58450;52.150;4.466;2023-07-20T00:42:45;101508.06;;;16.05;100.00
66273;BME280;58450;52.150;4.466;2023-07-20T00:45:12;101498.66;;;15.94;100.00
66273;BME280;58450;52.150;4.466;2023-07-20T00:47:40;101498.66;;;15.94;100.00
66273;BME280;58450;52.150;4.466;2023-07-20T00:50:09;101493.41;;;15.93;100.00
66273;BME280;58450;52.150;4.466;2023-07-20T00:52:37;101496.56;;;15.90;100.00
66273;BME280;58450;52.150;4.466;2023-07-20T00:55:07;101497.16;;;15.85;100.00
66273;BME280;58450;52.150;4.466;2023-07-20T00:57:38;101501.31;;;15.81;100.00
66273;BME280;58450;52.150;4.466;2023-07-20T01:00:07;101506.13;;;15.79;100.00
66273;BME280;58450;52.150;4.466;2023-07-20T01:02:35;101502.34;;;15.73;100.00
66273;BME280;58450;52.150;4.466;2023-07-20T01:05:04;101508.19;;;15.70;100.00
66273;BME280;58450;52.150;4.466;2023-07-20T01:07:36;101507.75;;;15.66;100.00
66273;BME280;58450;52.150;4.466;2023-07-20T01:10:11;101508.16;;;15.63;100.00
66273;BME280;58450;52.150;4.466;2023-07-20T01:12:48;101496.03;;;15.59;100.00
66273;BME280;58450;52.150;4.466;2023-07-20T01:15:19;101511.69;;;15.57;100.00
66273;BME280;58450;52.150;4.466;2023-07-20T01:17:46;101509.19;;;15.56;100.00
66273;BME280;58450;52.150;4.466;2023-07-20T01:20:15;101507.53;;;15.55;100.00
66273;BME280;58450;52.150;4.466;2023-07-20T01:23:09;101515.66;;;15.55;100.00
66273;BME280;58450;52.150;4.466;2023-07-20T01:26:07;101512.72;;;15.56;100.00
66273;BME280;58450;52.150;4.466;2023-07-20T01:29:20;101517.97;;;15.58;100.00
66273;BME280;58450;52.150;4.466;2023-07-20T01:32:00;101525.25;;;15.57;100.00
66273;BME280;58450;52.150;4.466;2023-07-20T01:34:34;101525.25;;;15.57;100.00
66273;BME280;58450;52.150;4.466;2023-07-20T01:37:05;101527.78;;;15.59;100.00
66273;BME280;58450;52.150;4.466;2023-07-20T01:39:34;101530.28;;;15.60;100.00
66273;BME280;58450;52.150;4.466;2023-07-20T01:42:03;101523.41;;;15.64;100.00
66273;BME280;58450;52.150;4.466;2023-07-20T01:44:32;101521.94;;;15.69;100.00
66273;BME280;58450;52.150;4.466;2023-07-20T01:47:01;101518.63;;;15.73;100.00
66273;BME280;58450;52.150;4.466;2023-07-20T01:49:28;101516.56;;;15.75;100.00
66273;BME280;58450;52.150;4.466;2023-07-20T01:51:56;101518.88;;;15.78;100.00
66273;BME280;58450;52.150;4.466;2023-07-20T01:54:24;101517.81;;;15.79;100.00
66273;BME280;58450;52.150;4.466;2023-07-20T01:56:52;101528.25;;;15.83;100.00
66273;BME280;58450;52.150;4.466;2023-07-20T01:59:19;101527.84;;;15.86;100.00
66273;BME280;58450;52.150;4.466;2023-07-20T02:01:47;101523.09;;;15.88;100.00
66273;BME280;58450;52.150;4.466;2023-07-20T02:04:16;101529.34;;;15.88;100.00
66273;BME280;58450;52.150;4.466;2023-07-20T02:06:43;101525.97;;;15.86;100.00
66273;BME280;58450;52.150;4.466;2023-07-20T02:09:11;101525.56;;;15.83;100.00
66273;BME280;58450;52.150;4.466;2023-07-20T02:11:39;101526.78;;;15.80;100.00
66273;BME280;58450;52.150;4.466;2023-07-20T02:14:06;101525.97;;;15.79;100.00
66273;BME280;58450;52.150;4.466;2023-07-20T02:16:34;101520.53;;;15.79;100.00
66273;BME280;58450;52.150;4.466;2023-07-20T02:19:02;101515.53;;;15.76;100.00
66273;BME280;58450;52.150;4.466;2023-07-20T02:21:31;101521.97;;;15.75;100.00
66273;BME280;58450;52.150;4.466;2023-07-20T02:23:59;101519.47;;;15.74;100.00
66273;BME280;58450;52.150;4.466;2023-07-20T02:26:27;101517.59;;;15.74;100.00
66273;BME280;58450;52.150;4.466;2023-07-20T02:28:54;101514.88;;;15.74;100.00
66273;BME280;58450;52.150;4.466;2023-07-20T02:31:22;101528.22;;;15.76;100.00
66273;BME280;58450;52.150;4.466;2023-07-20T02:33:50;101517.78;;;15.73;100.00
66273;BME280;58450;52.150;4.466;2023-07-20T02:36:18;101523.44;;;15.71;100.00
66273;BME280;58450;52.150;4.466;2023-07-20T02:38:47;101522.81;;;15.69;100.00
66273;BME280;58450;52.150;4.466;2023-07-20T02:41:14;101524.25;;;15.65;100.00
66273;BME280;58450;52.150;4.466;2023-07-20T02:43:42;101521.31;;;15.60;100.00
66273;BME280;58450;52.150;4.466;2023-07-20T02:46:10;101520.88;;;15.56;100.00
66273;BME280;58450;52.150;4.466;2023-07-20T02:48:38;101517.75;;;15.52;100.00
66273;BME280;58450;52.150;4.466;2023-07-20T02:51:05;101519.38;;;15.47;100.00
66273;BME280;58450;52.150;4.466;2023-07-20T02:53:33;101516.47;;;15.42;100.00
66273;BME280;58450;52.150;4.466;2023-07-20T02:56:03;101518.94;;;15.36;100.00
66273;BME280;58450;52.150;4.466;2023-07-20T02:58:31;101514.34;;;15.30;100.00
66273;BME280;58450;52.150;4.466;2023-07-20T03:01:03;101532.44;;;15.23;100.00
66273;BME280;58450;52.150;4.466;2023-07-20T03:03:30;101536.78;;;15.17;100.00
66273;BME280;58450;52.150;4.466;2023-07-20T03:05:58;101533.84;;;15.12;100.00
66273;BME280;58450;52.150;4.466;2023-07-20T03:08:27;101531.72;;;15.07;100.00
66273;BME280;58450;52.150;4.466;2023-07-20T03:10:54;101532.13;;;15.04;100.00
66273;BME280;58450;52.150;4.466;2023-07-20T03:13:23;101538.56;;;14.97;100.00
66273;BME280;58450;52.150;4.466;2023-07-20T03:15:52;101539.94;;;14.86;100.00
66273;BME280;58450;52.150;4.466;2023-07-20T03:18:19;101539.28;;;14.77;100.00
66273;BME280;58450;52.150;4.466;2023-07-20T03:20:47;101544.81;;;14.69;100.00
66273;BME280;58450;52.150;4.466;2023-07-20T03:23:14;101552.47;;;14.65;100.00
66273;BME280;58450;52.150;4.466;2023-07-20T03:25:42;101556.59;;;14.61;100.00
66273;BME280;58450;52.150;4.466;2023-07-20T03:28:10;101553.69;;;14.56;100.00
66273;BME280;58450;52.150;4.466;2023-07-20T03:30:39;101540.31;;;14.54;100.00
66273;BME280;58450;52.150;4.466;2023-07-20T03:33:07;101550.97;;;14.56;100.00
66273;BME280;58450;52.150;4.466;2023-07-20T03:35:34;101557.63;;;14.60;100.00
66273;BME280;58450;52.150;4.466;2023-07-20T03:38:02;101554.75;;;14.61;100.00
66273;BME280;58450;52.150;4.466;2023-07-20T03:40:30;101552.47;;;14.65;100.00
66273;BME280;58450;52.150;4.466;2023-07-20T03:42:58;101555.38;;;14.63;100.00
66273;BME280;58450;52.150;4.466;2023-07-20T03:45:25;101557.47;;;14.61;100.00
66273;BME280;58450;52.150;4.466;2023-07-20T03:47:54;101555.13;;;14.58;100.00
66273;BME280;58450;52.150;4.466;2023-07-20T03:50:22;101564.09;;;14.59;100.00
66273;BME280;58450;52.150;4.466;2023-07-20T03:52:50;101557.00;;;14.58;100.00
66273;BME280;58450;52.150;4.466;2023-07-20T03:55:18;101561.00;;;14.62;100.00
66273;BME280;58450;52.150;4.466;2023-07-20T03:57:46;101555.63;;;14.69;100.00
66273;BME280;58450;52.150;4.466;2023-07-20T04:00:16;101566.53;;;14.75;100.00
66273;BME280;58450;52.150;4.466;2023-07-20T04:02:44;101560.97;;;14.84;100.00
66273;BME280;58450;52.150;4.466;2023-07-20T04:05:13;101560.41;;;14.88;100.00
66273;BME280;58450;52.150;4.466;2023-07-20T04:07:41;101559.78;;;14.93;100.00
66273;BME280;58450;52.150;4.466;2023-07-20T04:10:09;101568.53;;;14.88;100.00
66273;BME280;58450;52.150;4.466;2023-07-20T04:12:37;101561.63;;;14.86;100.00
66273;BME280;58450;52.150;4.466;2023-07-20T04:15:06;101564.31;;;14.86;100.00
66273;BME280;58450;52.150;4.466;2023-07-20T04:17:34;101558.34;;;14.90;100.00
66273;BME280;58450;52.150;4.466;2023-07-20T04:20:02;101561.47;;;14.94;100.00
66273;BME280;58450;52.150;4.466;2023-07-20T04:22:33;101561.91;;;14.98;100.00
66273;BME280;58450;52.150;4.466;2023-07-20T04:25:00;101556.94;;;15.01;100.00
66273;BME280;58450;52.150;4.466;2023-07-20T04:27:28;101562.78;;;15.05;100.00
66273;BME280;58450;52.150;4.466;2023-07-20T04:29:57;101566.34;;;15.05;100.00
66273;BME280;58450;52.150;4.466;2023-07-20T04:32:25;101568.25;;;15.12;100.00
66273;BME280;58450;52.150;4.466;2023-07-20T04:34:53;101571.19;;;15.17;100.00
66273;BME280;58450;52.150;4.466;2023-07-20T04:37:21;101570.41;;;15.23;100.00
66273;BME280;58450;52.150;4.466;2023-07-20T04:39:50;101578.56;;;15.30;100.00
66273;BME280;58450;52.150;4.466;2023-07-20T04:42:17;101575.25;;;15.34;100.00
66273;BME280;58450;52.150;4.466;2023-07-20T04:44:46;101582.78;;;15.39;100.00
66273;BME280;58450;52.150;4.466;2023-07-20T04:47:14;101592.00;;;15.45;100.00
66273;BME280;58450;52.150;4.466;2023-07-20T04:49:41;101586.38;;;15.53;100.00
66273;BME280;58450;52.150;4.466;2023-07-20T04:52:09;101589.16;;;15.66;100.00
66273;BME280;58450;52.150;4.466;2023-07-20T04:54:37;101586.31;;;15.81;100.00
66273;BME280;58450;52.150;4.466;2023-07-20T04:57:11;101587.78;;;15.91;100.00
66273;BME280;58450;52.150;4.466;2023-07-20T04:59:39;101584.28;;;16.04;100.00
66273;BME280;58450;52.150;4.466;2023-07-20T05:02:07;101584.75;;;16.21;100.00
66273;BME280;58450;52.150;4.466;2023-07-20T05:04:34;101587.88;;;16.38;100.00
66273;BME280;58450;52.150;4.466;2023-07-20T05:07:02;101590.00;;;16.56;100.00
66273;BME280;58450;52.150;4.466;2023-07-20T05:09:30;101583.53;;;16.71;100.00
66273;BME280;58450;52.150;4.466;2023-07-20T05:11:58;101582.66;;;16.70;100.00
66273;BME280;58450;52.150;4.466;2023-07-20T05:14:27;101585.38;;;16.83;100.00
66273;BME280;58450;52.150;4.466;2023-07-20T05:16:54;101578.69;;;16.93;100.00
66273;BME280;58450;52.150;4.466;2023-07-20T05:19:22;101588.13;;;16.97;100.00
66273;BME280;58450;52.150;4.466;2023-07-20T05:21:51;101581.41;;;16.99;100.00
66273;BME280;58450;52.150;4.466;2023-07-20T05:24:19;101584.97;;;17.00;100.00
66273;BME280;58450;52.150;4.466;2023-07-20T05:26:47;101578.69;;;16.99;100.00
66273;BME280;58450;52.150;4.466;2023-07-20T05:29:15;101587.69;;;17.00;100.00
66273;BME280;58450;52.150;4.466;2023-07-20T05:31:44;101586.66;;;17.01;100.00
66273;BME280;58450;52.150;4.466;2023-07-20T05:34:12;101581.22;;;17.01;100.00
66273;BME280;58450;52.150;4.466;2023-07-20T05:36:39;101584.97;;;17.00;100.00
66273;BME280;58450;52.150;4.466;2023-07-20T05:39:07;101584.75;;;17.02;100.00
66273;BME280;58450;52.150;4.466;2023-07-20T05:41:34;101587.03;;;17.05;100.00
66273;BME280;58450;52.150;4.466;2023-07-20T05:44:02;101588.09;;;17.10;100.00
66273;BME280;58450;52.150;4.466;2023-07-20T05:46:30;101591.63;;;17.18;100.00
66273;BME280;58450;52.150;4.466;2023-07-20T05:48:59;101590.97;;;17.22;100.00
66273;BME280;58450;52.150;4.466;2023-07-20T05:51:27;101582.97;;;17.34;100.00
66273;BME280;58450;52.150;4.466;2023-07-20T05:53:55;101582.69;;;17.56;100.00
66273;BME280;58450;52.150;4.466;2023-07-20T05:56:22;101585.06;;;17.84;100.00
66273;BME280;58450;52.150;4.466;2023-07-20T05:58:50;101585.56;;;18.13;100.00
66273;BME280;58450;52.150;4.466;2023-07-20T06:01:18;101580.56;;;18.42;100.00
66273;BME280;58450;52.150;4.466;2023-07-20T06:03:46;101580.31;;;18.69;100.00
66273;BME280;58450;52.150;4.466;2023-07-20T06:06:15;101571.06;;;18.96;100.00
66273;BME280;58450;52.150;4.466;2023-07-20T06:08:43;101570.16;;;19.20;100.00
66273;BME280;58450;52.150;4.466;2023-07-20T06:11:10;101576.22;;;19.41;100.00
66273;BME280;58450;52.150;4.466;2023-07-20T06:13:38;101574.88;;;19.51;100.00
66273;BME280;58450;52.150;4.466;2023-07-20T06:16:06;101569.38;;;19.69;100.00
66273;BME280;58450;52.150;4.466;2023-07-20T06:18:33;101579.19;;;19.89;100.00
66273;BME280;58450;52.150;4.466;2023-07-20T06:21:01;101582.91;;;19.95;100.00
66273;BME280;58450;52.150;4.466;2023-07-20T06:23:30;101577.72;;;20.05;100.00
66273;BME280;58450;52.150;4.466;2023-07-20T06:25:58;101582.59;;;20.03;100.00
66273;BME280;58450;52.150;4.466;2023-07-20T06:28:25;101583.34;;;20.10;100.00
66273;BME280;58450;52.150;4.466;2023-07-20T06:30:59;101586.81;;;20.17;100.00
66273;BME280;58450;52.150;4.466;2023-07-20T06:33:27;101590.53;;;20.04;100.00
66273;BME280;58450;52.150;4.466;2023-07-20T06:35:55;101585.50;;;20.20;100.00
66273;BME280;58450;52.150;4.466;2023-07-20T06:38:24;101584.94;;;20.53;100.00
66273;BME280;58450;52.150;4.466;2023-07-20T06:40:53;101584.41;;;20.99;100.00
66273;BME280;58450;52.150;4.466;2023-07-20T06:43:21;101595.84;;;21.49;100.00
66273;BME280;58450;52.150;4.466;2023-07-20T06:45:51;101591.53;;;21.94;100.00
66273;BME280;58450;52.150;4.466;2023-07-20T06:48:20;101589.66;;;22.11;100.00
66273;BME280;58450;52.150;4.466;2023-07-20T06:50:48;101590.34;;;22.36;100.00
66273;BME280;58450;52.150;4.466;2023-07-20T06:53:15;101587.59;;;22.48;100.00
66273;BME280;58450;52.150;4.466;2023-07-20T06:55:43;101593.59;;;22.16;100.00
66273;BME280;58450;52.150;4.466;2023-07-20T06:58:12;101586.22;;;21.46;100.00
66273;BME280;58450;52.150;4.466;2023-07-20T07:00:40;101590.09;;;21.09;100.00
66273;BME280;58450;52.150;4.466;2023-07-20T07:03:08;101580.81;;;20.75;100.00
66273;BME280;58450;52.150;4.466;2023-07-20T07:05:36;101584.34;;;20.28;100.00
66273;BME280;58450;52.150;4.466;2023-07-20T07:08:04;101596.19;;;19.91;100.00
66273;BME280;58450;52.150;4.466;2023-07-20T07:10:34;101588.97;;;19.47;100.00
66273;BME280;58450;52.150;4.466;2023-07-20T07:13:03;101595.13;;;19.43;100.00
66273;BME280;58450;52.150;4.466;2023-07-20T07:15:33;101608.06;;;19.29;100.00
66273;BME280;58450;52.150;4.466;2023-07-20T07:18:01;101606.78;;;18.62;100.00
66273;BME280;58450;52.150;4.466;2023-07-20T07:20:29;101615.81;;;17.92;100.00
66273;BME280;58450;52.150;4.466;2023-07-20T07:22:57;101610.34;;;17.53;100.00
66273;BME280;58450;52.150;4.466;2023-07-20T07:25:24;101610.81;;;17.43;100.00
66273;BME280;58450;52.150;4.466;2023-07-20T07:27:53;101614.66;;;17.08;100.00
66273;BME280;58450;52.150;4.466;2023-07-20T07:30:21;101610.88;;;16.89;100.00
66273;BME280;58450;52.150;4.466;2023-07-20T07:32:50;101614.66;;;16.95;100.00
66273;BME280;58450;52.150;4.466;2023-07-20T07:35:18;101610.25;;;16.80;100.00
66273;BME280;58450;52.150;4.466;2023-07-20T07:37:45;101613.81;;;16.81;100.00
66273;BME280;58450;52.150;4.466;2023-07-20T07:40:13;101609.00;;;16.83;100.00
66273;BME280;58450;52.150;4.466;2023-07-20T07:42:41;101612.34;;;16.78;100.00
66273;BME280;58450;52.150;4.466;2023-07-20T07:45:09;101602.09;;;16.94;100.00
66273;BME280;58450;52.150;4.466;2023-07-20T07:47:37;101613.56;;;17.23;100.00
66273;BME280;58450;52.150;4.466;2023-07-20T07:50:07;101615.47;;;18.52;100.00
66273;BME280;58450;52.150;4.466;2023-07-20T07:52:36;101619.13;;;19.90;100.00
66273;BME280;58450;52.150;4.466;2023-07-20T07:55:04;101613.97;;;21.26;100.00
66273;BME280;58450;52.150;4.466;2023-07-20T07:57:33;101616.00;;;22.12;100.00
66273;BME280;58450;52.150;4.466;2023-07-20T08:00:00;101607.16;;;22.91;100.00
66273;BME280;58450;52.150;4.466;2023-07-20T08:02:29;101617.47;;;22.66;100.00
66273;BME280;58450;52.150;4.466;2023-07-20T08:04:57;101620.56;;;20.89;100.00
66273;BME280;58450;52.150;4.466;2023-07-20T08:07:28;101626.31;;;20.03;100.00
66273;BME280;58450;52.150;4.466;2023-07-20T08:09:56;101618.44;;;19.01;100.00
66273;BME280;58450;52.150;4.466;2023-07-20T08:12:23;101623.09;;;18.94;100.00
66273;BME280;58450;52.150;4.466;2023-07-20T08:14:51;101623.28;;;18.74;100.00
66273;BME280;58450;52.150;4.466;2023-07-20T08:17:19;101619.88;;;19.04;100.00
66273;BME280;58450;52.150;4.466;2023-07-20T08:19:47;101618.16;;;19.28;100.00
66273;BME280;58450;52.150;4.466;2023-07-20T08:22:14;101612.44;;;19.11;100.00
66273;BME280;58450;52.150;4.466;2023-07-20T08:24:43;101614.50;;;19.53;100.00
66273;BME280;58450;52.150;4.466;2023-07-20T08:27:11;101616.47;;;20.56;100.00
66273;BME280;58450;52.150;4.466;2023-07-20T08:29:39;101611.63;;;21.30;100.00
66273;BME280;58450;52.150;4.466;2023-07-20T08:32:07;101610.91;;;22.04;100.00
66273;BME280;58450;52.150;4.466;2023-07-20T08:34:35;101612.19;;;22.13;100.00
66273;BME280;58450;52.150;4.466;2023-07-20T08:37:03;101623.72;;;21.46;100.00
66273;BME280;58450;52.150;4.466;2023-07-20T08:39:31;101622.22;;;20.90;100.00
66273;BME280;58450;52.150;4.466;2023-07-20T08:42:01;101616.13;;;21.36;100.00
66273;BME280;58450;52.150;4.466;2023-07-20T08:44:32;101616.19;;;22.52;100.00
66273;BME280;58450;52.150;4.466;2023-07-20T08:47:01;101618.16;;;23.52;100.00
66273;BME280;58450;52.150;4.466;2023-07-20T08:49:30;101616.44;;;24.18;100.00
66273;BME280;58450;52.150;4.466;2023-07-20T08:51:59;101615.94;;;24.59;97.61
66273;BME280;58450;52.150;4.466;2023-07-20T08:54:29;101619.13;;;23.63;96.72
66273;BME280;58450;52.150;4.466;2023-07-20T08:57:02;101621.44;;;23.71;97.23
66273;BME280;58450;52.150;4.466;2023-07-20T08:59:31;101613.31;;;23.87;97.03
66273;BME280;58450;52.150;4.466;2023-07-20T09:02:00;101609.91;;;23.52;93.40
66273;BME280;58450;52.150;4.466;2023-07-20T09:04:29;101612.16;;;23.33;95.54
66273;BME280;58450;52.150;4.466;2023-07-20T09:06:57;101616.97;;;23.65;90.35
66273;BME280;58450;52.150;4.466;2023-07-20T09:09:25;101610.53;;;24.04;88.25
66273;BME280;58450;52.150;4.466;2023-07-20T09:11:52;101613.00;;;25.03;83.36
66273;BME280;58450;52.150;4.466;2023-07-20T09:14:23;101613.84;;;25.09;78.15
66273;BME280;58450;52.150;4.466;2023-07-20T09:16:53;101611.72;;;24.78;76.45
66273;BME280;58450;52.150;4.466;2023-07-20T09:19:21;101609.97;;;24.34;74.83
66273;BME280;58450;52.150;4.466;2023-07-20T09:21:50;101604.34;;;24.52;78.62
66273;BME280;58450;52.150;4.466;2023-07-20T09:24:19;101611.22;;;24.16;81.29
66273;BME280;58450;52.150;4.466;2023-07-20T09:26:48;101618.03;;;24.14;76.74
66273;BME280;58450;52.150;4.466;2023-07-20T09:29:18;101613.06;;;25.19;75.68
66273;BME280;58450;52.150;4.466;2023-07-20T09:31:59;101613.63;;;25.16;72.92
66273;BME280;58450;52.150;4.466;2023-07-20T09:34:28;101615.03;;;25.23;70.38
66273;BME280;58450;52.150;4.466;2023-07-20T09:36:58;101617.41;;;24.07;74.82
66273;BME280;58450;52.150;4.466;2023-07-20T09:39:26;101616.00;;;21.83;87.87
66273;BME280;58450;52.150;4.466;2023-07-20T09:41:54;101613.97;;;21.38;93.41
66273;BME280;58450;52.150;4.466;2023-07-20T09:44:22;101611.03;;;21.28;94.60
66273;BME280;58450;52.150;4.466;2023-07-20T09:46:50;101605.16;;;21.89;92.23
66273;BME280;58450;52.150;4.466;2023-07-20T09:49:19;101607.94;;;22.52;90.13
66273;BME280;58450;52.150;4.466;2023-07-20T09:51:47;101609.75;;;22.46;88.92
66273;BME280;58450;52.150;4.466;2023-07-20T09:54:17;101611.13;;;21.85;95.41
66273;BME280;58450;52.150;4.466;2023-07-20T09:56:48;101598.06;;;23.24;83.06
66273;BME280;58450;52.150;4.466;2023-07-20T09:59:18;101598.03;;;23.07;83.15
66273;BME280;58450;52.150;4.466;2023-07-20T10:01:46;101592.34;;;23.53;80.71
66273;BME280;58450;52.150;4.466;2023-07-20T10:04:16;101604.81;;;24.43;79.57
66273;BME280;58450;52.150;4.466;2023-07-20T10:06:50;101605.66;;;24.11;77.98
66273;BME280;58450;52.150;4.466;2023-07-20T10:09:22;101605.28;;;24.35;79.64
66273;BME280;58450;52.150;4.466;2023-07-20T10:11:53;101607.47;;;22.26;83.90
66273;BME280;58450;52.150;4.466;2023-07-20T10:14:22;101608.03;;;23.13;85.52
66273;BME280;58450;52.150;4.466;2023-07-20T10:16:51;101610.78;;;23.80;78.96
66273;BME280;58450;52.150;4.466;2023-07-20T10:19:33;101612.09;;;23.72;83.25
66273;BME280;58450;52.150;4.466;2023-07-20T10:22:11;101606.69;;;23.16;80.75
66273;BME280;58450;52.150;4.466;2023-07-20T10:24:46;101617.41;;;22.44;85.03
66273;BME280;58450;52.150;4.466;2023-07-20T10:27:14;101607.75;;;23.32;82.44
66273;BME280;58450;52.150;4.466;2023-07-20T10:29:42;101605.84;;;24.04;77.59
66273;BME280;58450;52.150;4.466;2023-07-20T10:32:10;101606.66;;;23.55;78.15
66273;BME280;58450;52.150;4.466;2023-07-20T10:34:40;101608.25;;;23.51;79.95
66273;BME280;58450;52.150;4.466;2023-07-20T10:37:08;101612.28;;;23.04;83.68
66273;BME280;58450;52.150;4.466;2023-07-20T10:39:36;101605.91;;;22.98;88.10
66273;BME280;58450;52.150;4.466;2023-07-20T10:42:07;101606.81;;;22.87;88.59
66273;BME280;58450;52.150;4.466;2023-07-20T10:44:37;101610.22;;;23.78;82.11
66273;BME280;58450;52.150;4.466;2023-07-20T10:47:09;101605.69;;;23.22;80.65
66273;BME280;58450;52.150;4.466;2023-07-20T10:50:01;101613.97;;;22.37;83.86
66273;BME280;58450;52.150;4.466;2023-07-20T10:52:36;101606.91;;;22.41;89.35
66273;BME280;58450;52.150;4.466;2023-07-20T10:55:10;101598.28;;;23.67;81.82
66273;BME280;58450;52.150;4.466;2023-07-20T10:57:38;101597.41;;;23.89;77.29
66273;BME280;58450;52.150;4.466;2023-07-20T11:00:08;101595.50;;;23.40;77.10
66273;BME280;58450;52.150;4.466;2023-07-20T11:02:46;101602.03;;;23.83;75.97
66273;BME280;58450;52.150;4.466;2023-07-20T11:05:36;101599.91;;;24.83;71.96
66273;BME280;58450;52.150;4.466;2023-07-20T11:08:10;101592.38;;;25.11;69.84
66273;BME280;58450;52.150;4.466;2023-07-20T11:10:39;101593.84;;;23.88;71.66
66273;BME280;58450;52.150;4.466;2023-07-20T11:13:17;101591.25;;;23.54;74.27
66273;BME280;58450;52.150;4.466;2023-07-20T11:16:02;101590.41;;;23.76;78.76
66273;BME280;58450;52.150;4.466;2023-07-20T11:18:34;101589.81;;;23.24;76.31
66273;BME280;58450;52.150;4.466;2023-07-20T11:21:09;101587.44;;;22.25;83.48
66273;BME280;58450;52.150;4.466;2023-07-20T11:23:38;101593.59;;;22.33;84.45
66273;BME280;58450;52.150;4.466;2023-07-20T11:26:07;101586.41;;;22.61;86.83
66273;BME280;58450;52.150;4.466;2023-07-20T11:28:36;101579.25;;;23.60;77.75
66273;BME280;58450;52.150;4.466;2023-07-20T11:31:03;101578.19;;;23.39;76.57
66273;BME280;58450;52.150;4.466;2023-07-20T11:33:31;101583.16;;;23.92;72.72
66273;BME280;58450;52.150;4.466;2023-07-20T11:35:58;101578.50;;;23.43;74.15
66273;BME280;58450;52.150;4.466;2023-07-20T11:38:27;101574.47;;;24.00;71.14
66273;BME280;58450;52.150;4.466;2023-07-20T11:40:55;101575.22;;;23.96;75.38
66273;BME280;58450;52.150;4.466;2023-07-20T11:43:24;101575.69;;;25.44;71.76
66273;BME280;58450;52.150;4.466;2023-07-20T11:45:52;101580.00;;;26.76;66.63
66273;BME280;58450;52.150;4.466;2023-07-20T11:48:20;101579.75;;;26.51;61.57
66273;BME280;58450;52.150;4.466;2023-07-20T11:50:47;101575.34;;;26.19;62.21
66273;BME280;58450;52.150;4.466;2023-07-20T11:53:15;101570.63;;;26.56;63.11
66273;BME280;58450;52.150;4.466;2023-07-20T11:55:46;101574.53;;;26.50;61.45
66273;BME280;58450;52.150;4.466;2023-07-20T11:58:14;101574.25;;;26.36;59.74
66273;BME280;58450;52.150;4.466;2023-07-20T12:00:44;101572.03;;;26.43;58.91
66273;BME280;58450;52.150;4.466;2023-07-20T12:03:12;101572.28;;;25.21;62.49
66273;BME280;58450;52.150;4.466;2023-07-20T12:05:40;101568.13;;;25.77;63.60
66273;BME280;58450;52.150;4.466;2023-07-20T12:08:07;101576.16;;;26.61;62.26
66273;BME280;58450;52.150;4.466;2023-07-20T12:10:39;101564.00;;;25.05;63.12
66273;BME280;58450;52.150;4.466;2023-07-20T12:13:11;101559.63;;;25.20;65.13
66273;BME280;58450;52.150;4.466;2023-07-20T12:15:39;101565.69;;;25.22;66.07
66273;BME280;58450;52.150;4.466;2023-07-20T12:18:06;101561.66;;;25.40;64.24
66273;BME280;58450;52.150;4.466;2023-07-20T12:20:36;101563.25;;;25.26;64.44
66273;BME280;58450;52.150;4.466;2023-07-20T12:23:09;101563.75;;;26.02;64.10
66273;BME280;58450;52.150;4.466;2023-07-20T12:25:38;101569.78;;;25.88;62.36
66273;BME280;58450;52.150;4.466;2023-07-20T12:28:07;101564.28;;;25.09;62.44
66273;BME280;58450;52.150;4.466;2023-07-20T12:30:38;101561.66;;;23.84;64.93
66273;BME280;58450;52.150;4.466;2023-07-20T12:33:06;101554.66;;;23.49;68.23
66273;BME280;58450;52.150;4.466;2023-07-20T12:35:34;101559.28;;;22.81;73.06
66273;BME280;58450;52.150;4.466;2023-07-20T12:38:02;101557.19;;;23.78;70.85
66273;BME280;58450;52.150;4.466;2023-07-20T12:40:31;101555.78;;;24.02;69.53
66273;BME280;58450;52.150;4.466;2023-07-20T12:42:58;101560.25;;;23.31;70.46
66273;BME280;58450;52.150;4.466;2023-07-20T12:45:26;101561.63;;;23.34;70.71
66273;BME280;58450;52.150;4.466;2023-07-20T12:47:55;101553.34;;;23.79;67.72
66273;BME280;58450;52.150;4.466;2023-07-20T12:50:23;101553.00;;;24.30;65.36
66273;BME280;58450;52.150;4.466;2023-07-20T12:52:51;101567.72;;;24.13;67.15